Porter, North Carolina
Current Conditions -  °F | °C
As of 4:35 PM on Friday 31 Oct 2014 (Local Time) from KVUJ Reporting Station
Broken Clouds Broken Clouds  
Wind Chill: 60°   Ceiling: 4900
Heat Index: 60°   Visibility: 10mi
Dew Point: 43°   Wind: 0mph
Humidity: 54%   Direction: NA
Pressure: 29.85"   Gusts: NA
Location:  35.2152°N, 80.1663°W
Report Text: KVUJ 312035Z AUTO 00000KT 10SM BKN049 BKN070 BKN075 16/06 A2985 RMK AO2 T01550061
Loading
Personal Weather Stations






























Interactive Weather Map
Tropical Storm Tracking
New forecast layout! Learn more

10-Day Weather Forecast

Advertisements
Track Severe Weather on mobile